Time;durP1;ratioP1;P1;durP2;ratioP2;P2;SDS_P1;SDS_P2;PMS_P1;PMS_P2;Temp;Humidity;BMP_temperature;BMP_pressure;BME280_temperature;BME280_humidity;BME280_pressure;Samples;Min_cycle;Max_cycle;Signal;HPM_P1;HPM_P2
2021/12/18 00:01:34;;;;;;;10.88;6.90;;;9.30;99.90;;;;;;4885618;29;20043;-75
2021/12/18 00:04:01;;;;;;;11.38;6.88;;;9.40;99.90;;;;;;4875478;29;20040;-75
2021/12/18 00:06:29;;;;;;;10.57;5.95;;;9.40;99.90;;;;;;4886357;29;20039;-75
2021/12/18 00:08:57;;;;;;;10.30;6.10;;;9.40;99.90;;;;;;4904529;29;20043;-75
2021/12/18 00:11:24;;;;;;;9.57;6.45;;;9.40;99.90;;;;;;4873734;29;20045;-75
2021/12/18 00:13:50;;;;;;;8.70;6.18;;;9.40;99.90;;;;;;4886965;29;20032;-75
2021/12/18 00:16:17;;;;;;;10.45;6.68;;;9.40;99.90;;;;;;4866061;29;20400;-75
2021/12/18 00:18:45;;;;;;;10.50;6.80;;;9.40;99.90;;;;;;4887201;29;20044;-75
2021/12/18 00:21:14;;;;;;;10.90;6.45;;;9.40;99.90;;;;;;4885172;29;20052;-75
2021/12/18 00:23:41;;;;;;;10.65;6.45;;;9.40;99.90;;;;;;4892847;29;20047;-75
2021/12/18 00:26:07;;;;;;;11.57;7.65;;;9.40;99.90;;;;;;4911134;29;20717;-75
2021/12/18 00:28:34;;;;;;;12.27;6.88;;;9.40;99.90;;;;;;4869960;29;20048;-74
2021/12/18 00:31:01;;;;;;;10.23;5.75;;;9.40;99.90;;;;;;4873282;29;20055;-75
2021/12/18 00:33:27;;;;;;;10.35;6.05;;;9.40;99.90;;;;;;4874670;29;20059;-75
2021/12/18 00:35:53;;;;;;;8.95;5.72;;;9.30;99.90;;;;;;4877367;29;20047;-75
2021/12/18 00:38:28;;;;;;;8.65;5.30;;;9.30;99.90;;;;;;4869489;29;20052;-75
2021/12/18 00:41:14;;;;;;;9.25;6.10;;;9.30;99.90;;;;;;4870111;29;20048;-75
2021/12/18 00:44:01;;;;;;;10.02;5.85;;;9.30;99.90;;;;;;4833951;29;20057;-75
2021/12/18 00:46:30;;;;;;;8.52;5.55;;;9.30;99.90;;;;;;4885429;29;20043;-75
2021/12/18 00:48:57;;;;;;;7.97;4.68;;;9.30;99.90;;;;;;4850569;29;20037;-73
2021/12/18 00:51:24;;;;;;;7.75;4.97;;;9.30;99.90;;;;;;4881849;29;20027;-74
2021/12/18 00:53:50;;;;;;;26.05;14.13;;;9.30;99.90;;;;;;4907671;29;20044;-74
2021/12/18 00:56:17;;;;;;;25.10;15.68;;;9.30;99.90;;;;;;4889875;29;20047;-75
2021/12/18 00:58:44;;;;;;;14.75;8.70;;;9.30;99.90;;;;;;4883748;29;20040;-74
2021/12/18 01:01:11;;;;;;;11.50;7.30;;;9.30;99.90;;;;;;4871157;29;20059;-75
2021/12/18 01:03:40;;;;;;;9.93;6.85;;;9.30;99.90;;;;;;4870304;29;20181;-75
2021/12/18 01:06:07;;;;;;;9.07;5.93;;;9.20;99.90;;;;;;4910518;29;20045;-75
2021/12/18 01:08:33;;;;;;;8.77;5.28;;;9.30;99.90;;;;;;4888741;29;20036;-74
2021/12/18 01:13:32;;;;;;;8.98;6.10;;;9.20;99.90;;;;;;4908537;29;20063;-74
2021/12/18 01:16:07;;;;;;;9.30;5.87;;;9.20;99.90;;;;;;4906733;29;20048;-73
2021/12/18 01:24:06;;;;;;;7.03;4.30;;;9.20;99.90;;;;;;4881058;29;20056;-73
2021/12/18 01:26:32;;;;;;;8.15;4.47;;;9.20;99.90;;;;;;4874997;29;20040;-73
2021/12/18 01:28:59;;;;;;;7.18;4.32;;;9.20;99.90;;;;;;4872261;29;20370;-73
2021/12/18 01:31:26;;;;;;;8.55;4.40;;;9.20;99.90;;;;;;4887030;29;20036;-73
2021/12/18 01:33:52;;;;;;;7.40;4.38;;;9.20;99.90;;;;;;4891557;29;20060;-73
2021/12/18 01:36:20;;;;;;;7.88;4.00;;;9.20;99.90;;;;;;4892123;29;20044;-73
2021/12/18 01:38:47;;;;;;;9.25;5.22;;;9.20;99.90;;;;;;4907608;29;20044;-74
2021/12/18 01:41:15;;;;;;;7.65;3.80;;;9.20;99.90;;;;;;4875097;29;20044;-74
2021/12/18 01:47:00;;;;;;;7.68;4.93;;;9.20;99.90;;;;;;4827834;29;20041;-74
2021/12/18 01:52:32;;;;;;;13.68;7.85;;;9.20;99.90;;;;;;4836896;29;20389;-75
2021/12/18 01:54:59;;;;;;;13.23;7.63;;;9.20;99.90;;;;;;4849062;29;20048;-74
2021/12/18 01:57:25;;;;;;;11.82;7.00;;;9.20;99.90;;;;;;4851943;29;20047;-74
2021/12/18 01:59:52;;;;;;;10.93;6.32;;;9.20;99.90;;;;;;4871187;29;20036;-74
2021/12/18 02:02:20;;;;;;;9.75;5.85;;;9.20;99.90;;;;;;4863283;29;20048;-74
2021/12/18 02:04:47;;;;;;;10.65;6.10;;;9.20;99.90;;;;;;4899873;29;20178;-74
2021/12/18 02:07:14;;;;;;;12.25;6.57;;;9.20;99.90;;;;;;4873794;29;20048;-73
2021/12/18 02:12:10;;;;;;;8.20;4.82;;;9.10;99.90;;;;;;4857651;29;20393;-73
2021/12/18 02:22:56;;;;;;;8.52;4.93;;;9.10;99.90;;;;;;4861454;29;20424;-73
2021/12/18 02:25:24;;;;;;;9.88;5.18;;;9.10;99.90;;;;;;4874471;29;20036;-74
2021/12/18 02:27:52;;;;;;;8.55;4.68;;;9.10;99.90;;;;;;4881007;29;20029;-74
2021/12/18 02:30:21;;;;;;;7.88;4.93;;;9.10;99.90;;;;;;4902045;29;20033;-74
2021/12/18 02:32:49;;;;;;;9.20;5.28;;;9.10;99.90;;;;;;4872910;29;20073;-73
2021/12/18 02:35:36;;;;;;;10.57;5.68;;;9.10;99.90;;;;;;4883018;29;20040;-74
2021/12/18 02:38:11;;;;;;;11.00;6.57;;;9.00;99.90;;;;;;4878309;29;20048;-74
2021/12/18 02:43:18;;;;;;;11.27;6.20;;;9.00;99.90;;;;;;4872561;29;20055;-74
2021/12/18 02:45:44;;;;;;;8.93;4.88;;;9.00;99.90;;;;;;4878526;29;20051;-73
2021/12/18 02:48:11;;;;;;;10.88;5.43;;;9.00;99.90;;;;;;4864558;29;20039;-74
2021/12/18 02:50:39;;;;;;;7.93;4.80;;;9.00;99.90;;;;;;4877247;29;20039;-74
2021/12/18 02:53:07;;;;;;;8.95;5.13;;;9.00;99.90;;;;;;4894803;29;20056;-74
2021/12/18 02:55:33;;;;;;;11.13;4.97;;;9.00;99.90;;;;;;4895484;29;20059;-74
2021/12/18 02:58:00;;;;;;;9.30;5.63;;;9.10;99.90;;;;;;4850168;29;20060;-75
2021/12/18 03:00:28;;;;;;;9.48;5.40;;;9.10;99.90;;;;;;4887534;29;20044;-74
2021/12/18 03:02:54;;;;;;;10.73;6.18;;;9.10;99.90;;;;;;4871346;29;20045;-74
2021/12/18 03:05:28;;;;;;;9.43;5.18;;;9.10;99.90;;;;;;4892106;29;20032;-74
2021/12/18 03:08:03;;;;;;;9.90;5.13;;;9.10;99.90;;;;;;4893161;29;20036;-75
2021/12/18 03:19:26;;;;;;;9.73;4.93;;;9.00;99.90;;;;;;4892320;29;20039;-75
2021/12/18 03:24:33;;;;;;;7.53;4.25;;;8.90;99.90;;;;;;4908572;29;20052;-75
2021/12/18 03:27:00;;;;;;;7.90;4.53;;;8.90;99.90;;;;;;4894906;29;20037;-75
2021/12/18 03:29:26;;;;;;;8.90;4.68;;;8.90;99.90;;;;;;4891036;29;20032;-75
2021/12/18 03:31:53;;;;;;;9.82;5.43;;;8.90;99.90;;;;;;4892182;29;20044;-75
2021/12/18 03:34:19;;;;;;;9.43;5.38;;;8.90;99.90;;;;;;4875931;29;20059;-75
2021/12/18 03:36:46;;;;;;;9.15;4.78;;;8.90;99.90;;;;;;4860331;29;20043;-75
2021/12/18 03:39:15;;;;;;;11.88;5.00;;;8.90;99.90;;;;;;4884460;29;20043;-75
2021/12/18 03:41:42;;;;;;;7.03;4.32;;;8.90;99.90;;;;;;4864539;29;20051;-75
2021/12/18 03:44:08;;;;;;;8.10;4.63;;;8.90;99.90;;;;;;4891485;29;20507;-75
2021/12/18 03:46:34;;;;;;;8.48;4.25;;;8.80;99.90;;;;;;4897448;29;20044;-75
2021/12/18 03:49:01;;;;;;;12.13;4.72;;;8.80;99.90;;;;;;4870803;29;20063;-75
2021/12/18 03:51:27;;;;;;;12.85;4.25;;;8.80;99.90;;;;;;4864961;29;20051;-75
2021/12/18 03:53:54;;;;;;;8.82;4.65;;;8.80;99.90;;;;;;4889450;29;20044;-75
2021/12/18 03:56:20;;;;;;;9.75;4.60;;;8.80;99.90;;;;;;4868026;29;20515;-75
2021/12/18 03:58:47;;;;;;;8.63;4.45;;;8.70;99.90;;;;;;4892900;29;20620;-75
2021/12/18 04:01:13;;;;;;;10.98;4.20;;;8.70;99.90;;;;;;4858109;29;20032;-75
2021/12/18 04:03:40;;;;;;;7.22;4.05;;;8.70;99.90;;;;;;4874653;29;20059;-74
2021/12/18 04:06:06;;;;;;;8.90;4.55;;;8.70;99.90;;;;;;4894699;29;20047;-75
2021/12/18 04:08:33;;;;;;;7.82;3.58;;;8.60;99.90;;;;;;4890201;29;20523;-75
2021/12/18 04:10:59;;;;;;;7.35;3.65;;;8.60;99.90;;;;;;4864791;29;20036;-75
2021/12/18 04:13:26;;;;;;;7.68;3.70;;;8.60;99.90;;;;;;4867832;29;20048;-75
2021/12/18 04:15:52;;;;;;;5.72;3.40;;;8.60;99.90;;;;;;4879558;29;20040;-74
2021/12/18 04:18:19;;;;;;;5.63;2.90;;;8.60;99.90;;;;;;4917974;29;20039;-75
2021/12/18 04:20:45;;;;;;;11.77;4.20;;;8.60;99.90;;;;;;4875074;29;20051;-75
2021/12/18 04:23:12;;;;;;;10.73;5.18;;;8.50;99.90;;;;;;4861195;29;20058;-74
2021/12/18 04:25:39;;;;;;;10.30;4.82;;;8.50;99.90;;;;;;4874423;29;20029;-74
2021/12/18 04:28:06;;;;;;;8.68;3.80;;;8.50;99.90;;;;;;4876597;29;20051;-75
2021/12/18 04:30:33;;;;;;;30.85;6.68;;;8.50;99.90;;;;;;4883733;29;20033;-75
2021/12/18 04:33:00;;;;;;;14.60;5.40;;;8.50;99.90;;;;;;4855900;29;20044;-74
2021/12/18 04:35:27;;;;;;;11.23;5.35;;;8.50;99.90;;;;;;4861293;29;20041;-75
2021/12/18 04:37:54;;;;;;;9.02;3.72;;;8.50;99.90;;;;;;4866820;29;20044;-75
2021/12/18 04:40:26;;;;;;;10.88;4.68;;;8.50;99.90;;;;;;4886723;29;20049;-74
2021/12/18 04:42:55;;;;;;;13.03;4.10;;;8.50;99.90;;;;;;4886268;29;20056;-75
2021/12/18 04:45:23;;;;;;;11.50;4.40;;;8.50;99.90;;;;;;4888524;29;20480;-74
2021/12/18 04:47:50;;;;;;;12.43;3.83;;;8.50;99.90;;;;;;4894985;29;20054;-74
2021/12/18 04:50:17;;;;;;;8.93;4.38;;;8.50;99.90;;;;;;4894453;29;20043;-75
2021/12/18 04:52:43;;;;;;;16.05;4.68;;;8.50;99.90;;;;;;4895139;29;20857;-74
2021/12/18 04:55:09;;;;;;;9.98;3.63;;;8.50;99.90;;;;;;4863016;29;20397;-75
2021/12/18 04:57:36;;;;;;;8.00;3.75;;;8.60;99.90;;;;;;4882249;29;20396;-75
2021/12/18 05:00:06;;;;;;;14.77;4.30;;;8.60;99.90;;;;;;4886731;29;20055;-75
2021/12/18 05:02:43;;;;;;;10.70;4.32;;;8.60;99.90;;;;;;4892787;29;20052;-75
2021/12/18 05:05:12;;;;;;;10.85;4.70;;;8.60;99.90;;;;;;4876877;29;20044;-75
2021/12/18 05:07:40;;;;;;;17.40;4.00;;;8.60;99.90;;;;;;4885985;29;20371;-74
2021/12/18 05:10:09;;;;;;;10.73;4.05;;;8.60;99.90;;;;;;4889688;29;20036;-74
2021/12/18 05:12:37;;;;;;;10.93;3.70;;;8.60;99.90;;;;;;4871867;29;20479;-74
2021/12/18 05:15:05;;;;;;;20.80;4.63;;;8.60;99.90;;;;;;4879679;29;20040;-75
2021/12/18 05:17:32;;;;;;;17.90;4.07;;;8.60;99.90;;;;;;4891300;29;20400;-74
2021/12/18 05:19:58;;;;;;;17.00;3.15;;;8.60;99.90;;;;;;4915128;29;20051;-75
2021/12/18 05:22:25;;;;;;;11.45;3.20;;;8.60;99.90;;;;;;4878455;29;20534;-75
2021/12/18 05:24:51;;;;;;;12.38;2.70;;;8.50;99.90;;;;;;4890928;29;20055;-75
2021/12/18 05:27:18;;;;;;;7.38;2.97;;;8.50;99.90;;;;;;4921358;29;20052;-75
2021/12/18 05:29:44;;;;;;;7.00;3.33;;;8.50;99.90;;;;;;4866614;29;20045;-75
2021/12/18 05:32:10;;;;;;;14.07;2.90;;;8.50;99.90;;;;;;4915406;29;20055;-82
2021/12/18 05:34:38;;;;;;;15.88;2.42;;;8.50;99.90;;;;;;4896054;29;20047;-75
2021/12/18 05:37:20;;;;;;;8.55;2.97;;;8.50;99.90;;;;;;4894944;29;20110;-75
2021/12/18 05:39:49;;;;;;;9.68;2.85;;;8.50;99.90;;;;;;4896195;29;20040;-74
2021/12/18 05:42:16;;;;;;;16.48;2.50;;;8.50;99.90;;;;;;4897738;29;20063;-74
2021/12/18 05:44:43;;;;;;;16.42;2.60;;;8.40;99.90;;;;;;4894477;29;20044;-82
2021/12/18 05:47:10;;;;;;;15.23;2.80;;;8.40;99.90;;;;;;4877392;29;20056;-82
2021/12/18 05:49:37;;;;;;;15.85;2.50;;;8.40;99.90;;;;;;4914115;29;20047;-82
2021/12/18 05:52:05;;;;;;;10.77;2.40;;;8.40;99.90;;;;;;4880231;29;20036;-82
2021/12/18 05:54:35;;;;;;;5.57;2.50;;;8.40;99.90;;;;;;4881380;29;20500;-82
2021/12/18 05:57:07;;;;;;;8.75;2.25;;;8.40;99.90;;;;;;4900185;29;20400;-81
2021/12/18 05:59:34;;;;;;;7.18;1.55;;;8.40;99.90;;;;;;4907924;29;20047;-82
2021/12/18 06:02:00;;;;;;;8.30;1.70;;;8.40;99.90;;;;;;4887121;29;20036;-82
2021/12/18 06:04:27;;;;;;;9.80;2.38;;;8.40;99.90;;;;;;4894862;29;20500;-82
2021/12/18 06:07:03;;;;;;;8.13;2.05;;;8.40;99.90;;;;;;4893693;29;20047;-82
2021/12/18 06:09:31;;;;;;;9.90;1.58;;;8.40;99.90;;;;;;4876169;29;20071;-82
2021/12/18 06:11:58;;;;;;;8.30;1.50;;;8.30;99.90;;;;;;4877499;29;20037;-82
2021/12/18 06:14:25;;;;;;;12.82;1.33;;;8.40;99.90;;;;;;4893763;29;20044;-83
2021/12/18 06:16:51;;;;;;;12.00;1.45;;;8.30;99.90;;;;;;4878590;29;20032;-82
2021/12/18 06:19:18;;;;;;;11.75;1.52;;;8.30;99.90;;;;;;4894093;29;20040;-82
2021/12/18 06:21:44;;;;;;;8.10;1.50;;;8.30;99.90;;;;;;4894495;29;20726;-82
2021/12/18 06:24:11;;;;;;;3.22;1.05;;;8.30;99.90;;;;;;4875347;29;20052;-82
2021/12/18 06:26:37;;;;;;;3.33;1.52;;;8.30;99.90;;;;;;4899814;29;20043;-82
2021/12/18 06:29:04;;;;;;;9.07;1.10;;;8.30;99.90;;;;;;4873973;29;20048;-82
2021/12/18 06:31:32;;;;;;;2.67;1.10;;;8.30;99.90;;;;;;4888464;29;20039;-82
2021/12/18 06:33:58;;;;;;;3.10;1.50;;;8.20;99.90;;;;;;4877183;29;20511;-82
2021/12/18 06:36:24;;;;;;;2.95;0.88;;;8.20;99.90;;;;;;4861888;29;20404;-82
2021/12/18 06:38:51;;;;;;;3.15;1.10;;;8.20;99.90;;;;;;4873279;29;20044;-81
2021/12/18 06:41:17;;;;;;;3.88;0.90;;;8.20;99.90;;;;;;4883740;29;20044;-82
2021/12/18 06:43:44;;;;;;;2.85;0.88;;;8.20;99.90;;;;;;4892077;29;20056;-82
2021/12/18 06:46:10;;;;;;;3.28;0.70;;;8.10;99.90;;;;;;4893150;29;20033;-82
2021/12/18 06:48:37;;;;;;;2.05;0.65;;;8.10;99.90;;;;;;4880620;29;20040;-82
2021/12/18 06:51:03;;;;;;;1.52;0.60;;;8.10;99.90;;;;;;4894100;29;20032;-82
2021/12/18 06:53:30;;;;;;;2.83;0.60;;;8.10;99.90;;;;;;4915516;29;20511;-81
2021/12/18 06:55:57;;;;;;;8.68;0.70;;;8.10;99.90;;;;;;4894098;29;20727;-81
2021/12/18 06:58:23;;;;;;;4.03;0.60;;;8.10;99.90;;;;;;4867099;29;20055;-80
2021/12/18 07:00:53;;;;;;;1.55;0.70;;;8.00;99.90;;;;;;4888114;29;20052;-80
2021/12/18 07:03:20;;;;;;;1.63;0.57;;;8.00;99.90;;;;;;4892952;29;20047;-81
2021/12/18 07:05:48;;;;;;;5.65;3.58;;;8.00;99.90;;;;;;4858808;29;20490;-81
2021/12/18 07:08:15;;;;;;;15.80;10.20;;;7.90;99.90;;;;;;4917485;29;20040;-81
2021/12/18 07:10:42;;;;;;;5.80;3.78;;;7.90;99.90;;;;;;4909321;29;20032;-81
2021/12/18 07:13:08;;;;;;;6.22;3.28;;;7.90;99.90;;;;;;4898437;29;20078;-81
2021/12/18 07:15:35;;;;;;;2.97;1.50;;;7.90;99.90;;;;;;4868870;29;20495;-81
2021/12/18 07:18:02;;;;;;;1.48;0.63;;;7.80;99.90;;;;;;4898959;29;20066;-82
2021/12/18 07:20:28;;;;;;;1.33;0.70;;;7.80;99.90;;;;;;4894335;29;20048;-81
2021/12/18 07:22:55;;;;;;;1.08;0.47;;;7.80;99.90;;;;;;4877579;29;20032;-82
2021/12/18 07:25:21;;;;;;;1.45;0.55;;;7.80;99.90;;;;;;4864976;29;20036;-82
2021/12/18 07:27:48;;;;;;;2.05;0.65;;;7.80;99.90;;;;;;4878099;29;20040;-82
2021/12/18 07:30:15;;;;;;;1.70;0.50;;;7.80;99.90;;;;;;4880545;29;20044;-82
2021/12/18 07:32:42;;;;;;;1.17;0.55;;;7.80;99.90;;;;;;4880098;29;20038;-81
2021/12/18 07:35:09;;;;;;;1.00;0.50;;;7.70;99.90;;;;;;4861526;29;20488;-82
2021/12/18 07:37:37;;;;;;;5.43;0.60;;;7.80;99.90;;;;;;4893017;29;20052;-81
2021/12/18 07:40:08;;;;;;;1.20;0.50;;;7.80;99.90;;;;;;4871991;29;20492;-80
2021/12/18 07:42:34;;;;;;;14.90;10.40;;;7.70;99.90;;;;;;4914447;29;20512;-81
2021/12/18 07:45:01;;;;;;;5.63;3.03;;;7.70;99.90;;;;;;4870444;29;20056;-81
2021/12/18 07:47:28;;;;;;;7.18;3.90;;;7.70;99.90;;;;;;4890765;29;20110;-79
2021/12/18 07:49:54;;;;;;;2.67;1.33;;;7.70;99.90;;;;;;4854328;29;20063;-79
2021/12/18 07:52:21;;;;;;;4.15;1.00;;;7.70;99.90;;;;;;4887985;29;20032;-78
2021/12/18 07:54:48;;;;;;;1.40;0.70;;;7.60;99.90;;;;;;4888885;29;20036;-79
2021/12/18 07:57:14;;;;;;;1.50;0.52;;;7.60;99.90;;;;;;4912986;29;20055;-79
2021/12/18 07:59:41;;;;;;;1.90;0.57;;;7.70;99.90;;;;;;4909349;29;20051;-78
2021/12/18 08:02:07;;;;;;;1.33;0.60;;;7.70;99.90;;;;;;4896563;29;20040;-79
2021/12/18 08:04:34;;;;;;;1.08;0.45;;;7.70;99.90;;;;;;4885450;29;20058;-78
2021/12/18 08:07:01;;;;;;;1.15;0.43;;;7.70;99.90;;;;;;4892346;29;20039;-79
2021/12/18 08:09:28;;;;;;;1.48;0.73;;;7.70;99.90;;;;;;4911898;29;20043;-79
2021/12/18 08:11:55;;;;;;;3.97;0.40;;;7.70;99.90;;;;;;4888273;29;20028;-79
2021/12/18 08:14:21;;;;;;;2.72;0.40;;;7.70;99.90;;;;;;4893551;29;20040;-78
2021/12/18 08:16:48;;;;;;;1.27;0.60;;;7.70;99.90;;;;;;4889530;29;20503;-79
2021/12/18 08:19:15;;;;;;;1.50;0.70;;;7.70;99.90;;;;;;4910385;29;20044;-80
2021/12/18 08:21:42;;;;;;;1.92;0.60;;;7.70;99.90;;;;;;4889803;29;20036;-79
2021/12/18 08:24:08;;;;;;;3.97;0.60;;;7.80;99.90;;;;;;4919688;29;20048;-79
2021/12/18 08:26:35;;;;;;;1.20;0.40;;;7.80;99.90;;;;;;4913674;29;20044;-79
2021/12/18 08:29:01;;;;;;;1.95;0.80;;;7.80;99.90;;;;;;4888370;29;20037;-79
2021/12/18 08:31:27;;;;;;;3.15;0.70;;;7.80;99.90;;;;;;4906190;29;20036;-79
2021/12/18 08:33:54;;;;;;;1.55;0.50;;;7.80;99.90;;;;;;4915289;29;20052;-79
2021/12/18 08:36:20;;;;;;;1.27;0.50;;;7.80;99.90;;;;;;4914010;29;20044;-79
2021/12/18 08:38:47;;;;;;;1.60;0.70;;;7.80;99.90;;;;;;4914414;29;20040;-79
2021/12/18 08:41:13;;;;;;;1.70;0.70;;;7.80;99.90;;;;;;4871549;29;20054;-78
2021/12/18 08:43:40;;;;;;;2.42;0.63;;;7.80;99.90;;;;;;4872788;29;20060;-78
2021/12/18 08:46:06;;;;;;;1.80;0.73;;;7.80;99.90;;;;;;4888026;29;20487;-79
2021/12/18 08:48:33;;;;;;;1.60;0.80;;;7.80;99.90;;;;;;4873725;29;20040;-79
2021/12/18 08:51:00;;;;;;;1.70;0.80;;;7.80;99.90;;;;;;4888499;29;20033;-79
2021/12/18 08:53:27;;;;;;;1.70;0.80;;;7.80;99.90;;;;;;4918461;29;20464;-81
2021/12/18 08:55:53;;;;;;;1.80;0.90;;;7.70;99.90;;;;;;4871769;29;20406;-78
2021/12/18 08:58:20;;;;;;;1.70;0.80;;;7.70;99.90;;;;;;4859444;29;20040;-78
2021/12/18 09:00:47;;;;;;;4.18;2.38;;;7.70;99.90;;;;;;4861539;29;20048;-78
2021/12/18 09:03:13;;;;;;;3.30;1.80;;;7.70;99.90;;;;;;4865651;29;20515;-79
2021/12/18 09:05:40;;;;;;;2.50;1.20;;;7.80;99.90;;;;;;4896010;29;20047;-77
2021/12/18 09:08:06;;;;;;;2.00;0.80;;;7.70;99.90;;;;;;4865723;29;20048;-77
2021/12/18 09:10:33;;;;;;;2.05;0.98;;;7.80;99.90;;;;;;4889451;29;20105;-77
2021/12/18 09:13:00;;;;;;;1.92;0.80;;;7.80;99.90;;;;;;4891192;29;20043;-76
2021/12/18 09:15:27;;;;;;;2.00;1.13;;;7.90;99.90;;;;;;4878257;29;20047;-74
2021/12/18 09:17:53;;;;;;;17.02;6.22;;;7.90;99.90;;;;;;4916847;29;20500;-75
2021/12/18 09:20:20;;;;;;;10.68;6.10;;;7.90;99.90;;;;;;4863612;29;20044;-77
2021/12/18 09:22:46;;;;;;;18.77;9.35;;;7.90;99.90;;;;;;4890113;29;20545;-75
2021/12/18 09:25:13;;;;;;;8.60;4.20;;;7.90;99.90;;;;;;4915381;29;20047;-74
2021/12/18 09:27:40;;;;;;;3.97;1.92;;;7.90;99.90;;;;;;4903561;29;20040;-74
2021/12/18 09:30:11;;;;;;;2.42;1.25;;;8.00;99.90;;;;;;4882941;29;20052;-74
2021/12/18 09:32:39;;;;;;;1.83;1.05;;;7.90;99.90;;;;;;4901950;29;20032;-74
2021/12/18 09:35:06;;;;;;;1.30;0.60;;;7.90;99.90;;;;;;4880480;29;20040;-77
2021/12/18 09:37:33;;;;;;;1.38;0.60;;;7.90;99.90;;;;;;4889461;29;20035;-78
2021/12/18 09:39:59;;;;;;;1.40;0.50;;;7.90;99.90;;;;;;4862769;29;20048;-79
2021/12/18 09:42:26;;;;;;;1.75;1.00;;;7.80;99.90;;;;;;4863872;29;20063;-78
2021/12/18 09:44:52;;;;;;;16.75;7.60;;;7.80;99.90;;;;;;4895393;29;20047;-77
2021/12/18 09:47:20;;;;;;;10.05;5.03;;;7.90;99.90;;;;;;4865875;29;20044;-77
2021/12/18 09:49:47;;;;;;;3.20;1.55;;;7.80;99.90;;;;;;4895255;29;20036;-78
2021/12/18 09:52:13;;;;;;;2.33;1.17;;;7.80;99.90;;;;;;4900421;29;20035;-78
2021/12/18 09:54:40;;;;;;;1.65;0.60;;;7.80;99.90;;;;;;4896125;29;20369;-79
2021/12/18 09:57:07;;;;;;;1.35;0.70;;;7.90;99.90;;;;;;4864402;29;20036;-78
2021/12/18 09:59:35;;;;;;;1.50;0.60;;;7.90;99.90;;;;;;4916497;29;20044;-78
2021/12/18 10:02:02;;;;;;;1.00;0.50;;;7.90;99.90;;;;;;4916763;29;20040;-78
2021/12/18 10:04:34;;;;;;;2.28;0.40;;;7.80;99.90;;;;;;4884692;29;20052;-78
2021/12/18 10:07:18;;;;;;;1.77;0.60;;;7.80;99.90;;;;;;4892028;29;20040;-78
2021/12/18 10:09:46;;;;;;;1.20;0.45;;;7.80;99.90;;;;;;4887757;29;20106;-76
2021/12/18 10:12:19;;;;;;;4.53;0.57;;;7.80;99.90;;;;;;4922437;29;20488;-79
2021/12/18 10:14:55;;;;;;;5.78;3.63;;;7.80;99.90;;;;;;4920567;29;20044;-79
2021/12/18 10:17:24;;;;;;;6.22;4.10;;;7.80;99.90;;;;;;4919567;29;20031;-79
2021/12/18 10:19:53;;;;;;;5.18;3.72;;;7.80;99.90;;;;;;4917553;29;20039;-79
2021/12/18 10:22:19;;;;;;;4.43;3.42;;;7.80;99.90;;;;;;4918321;29;20032;-76
2021/12/18 10:25:04;;;;;;;3.03;1.65;;;7.80;99.90;;;;;;4919739;29;20043;-76
2021/12/18 10:27:30;;;;;;;1.60;0.90;;;7.80;99.90;;;;;;4854751;29;20036;-76
2021/12/18 10:30:11;;;;;;;1.95;0.85;;;7.90;99.90;;;;;;4885553;29;20040;-77
2021/12/18 10:32:37;;;;;;;2.38;0.88;;;7.90;99.90;;;;;;4896027;29;20032;-77
2021/12/18 10:35:05;;;;;;;1.52;0.60;;;7.90;99.90;;;;;;4895287;29;20040;-77
2021/12/18 10:37:34;;;;;;;3.03;0.60;;;7.90;99.90;;;;;;4876641;29;20043;-77
2021/12/18 10:40:09;;;;;;;1.55;0.70;;;7.90;99.90;;;;;;4891585;29;20535;-76
2021/12/18 10:42:40;;;;;;;2.00;0.60;;;7.80;99.90;;;;;;4912486;29;20075;-77
2021/12/18 10:45:12;;;;;;;1.52;0.63;;;7.90;99.90;;;;;;4867748;29;20029;-80
2021/12/18 10:48:02;;;;;;;2.22;0.50;;;7.80;99.90;;;;;;4885609;29;20534;-77
2021/12/18 10:50:29;;;;;;;1.55;0.80;;;7.90;99.90;;;;;;4858309;29;20078;-78
2021/12/18 10:52:58;;;;;;;1.38;0.63;;;7.90;99.90;;;;;;4888278;29;20031;-78
2021/12/18 10:55:28;;;;;;;1.27;0.60;;;8.00;99.90;;;;;;4868518;29;20348;-78
2021/12/18 10:57:55;;;;;;;2.67;1.00;;;8.00;99.90;;;;;;4913768;29;20503;-78
2021/12/18 11:00:33;;;;;;;1.90;0.93;;;8.00;99.90;;;;;;4914822;29;20074;-79
2021/12/18 11:03:13;;;;;;;1.20;0.70;;;8.00;99.90;;;;;;4879381;29;20044;-79
2021/12/18 11:05:40;;;;;;;1.70;0.65;;;8.00;99.90;;;;;;4909290;29;20040;-78
2021/12/18 11:08:09;;;;;;;1.73;0.80;;;8.10;99.90;;;;;;4897978;29;20047;-79
2021/12/18 11:10:43;;;;;;;1.40;0.60;;;8.10;99.90;;;;;;4915002;29;20036;-78
2021/12/18 11:15:56;;;;;;;1.17;0.50;;;8.10;99.90;;;;;;4886932;29;20049;-78
2021/12/18 11:18:22;;;;;;;26.48;15.48;;;8.20;99.90;;;;;;4893484;29;20044;-78
2021/12/18 11:20:53;;;;;;;20.88;10.43;;;8.20;99.90;;;;;;4890439;29;20509;-77
2021/12/18 11:24:01;;;;;;;11.05;6.25;;;8.10;99.90;;;;;;4876658;29;20035;-77
2021/12/18 11:26:35;;;;;;;4.18;2.00;;;8.10;99.90;;;;;;4910381;29;20047;-78
2021/12/18 11:29:04;;;;;;;3.03;1.40;;;8.10;99.90;;;;;;4891532;29;20499;-78
2021/12/18 11:31:31;;;;;;;2.35;1.13;;;8.10;99.90;;;;;;4893674;29;20039;-78
2021/12/18 11:34:00;;;;;;;2.40;1.15;;;8.20;99.90;;;;;;4882680;29;20051;-78
2021/12/18 11:36:26;;;;;;;2.25;1.10;;;8.20;99.90;;;;;;4892338;29;20055;-78
2021/12/18 11:38:53;;;;;;;2.30;0.80;;;8.30;99.90;;;;;;4916729;29;20047;-78
2021/12/18 11:41:20;;;;;;;1.73;0.75;;;8.30;99.90;;;;;;4893273;29;20534;-78
2021/12/18 11:43:47;;;;;;;1.63;0.90;;;8.30;99.90;;;;;;4891379;29;20063;-78
2021/12/18 11:46:33;;;;;;;1.67;0.80;;;8.30;99.90;;;;;;4883391;29;20491;-79
2021/12/18 11:49:09;;;;;;;1.60;0.65;;;8.30;99.90;;;;;;4890175;29;20047;-78
2021/12/18 11:51:36;;;;;;;1.50;0.77;;;8.30;99.90;;;;;;4888100;29;20037;-78
2021/12/18 11:54:06;;;;;;;1.60;0.90;;;8.30;99.90;;;;;;4880038;29;20039;-78
2021/12/18 11:56:49;;;;;;;1.48;0.70;;;8.30;99.90;;;;;;4889438;29;20044;-77
2021/12/18 11:59:37;;;;;;;1.52;0.68;;;8.30;99.90;;;;;;4911251;29;20046;-78
2021/12/18 12:02:04;;;;;;;1.10;0.50;;;8.40;99.90;;;;;;4888927;29;20501;-78
2021/12/18 12:05:03;;;;;;;2.20;0.70;;;8.50;99.90;;;;;;4913733;29;20043;-78
2021/12/18 12:07:30;;;;;;;0.82;0.40;;;8.50;99.90;;;;;;4915973;29;20039;-78
2021/12/18 12:13:03;;;;;;;0.80;0.40;;;8.70;99.90;;;;;;4919575;29;20400;-78
2021/12/18 12:15:29;;;;;;;1.10;0.47;;;8.70;99.90;;;;;;4887570;29;20044;-78
2021/12/18 12:18:01;;;;;;;0.60;0.30;;;8.70;99.90;;;;;;4908591;29;20396;-78
2021/12/18 12:20:42;;;;;;;0.70;0.30;;;8.80;99.90;;;;;;4908180;29;20054;-78
2021/12/18 12:23:11;;;;;;;1.00;0.40;;;8.80;99.90;;;;;;4873985;29;20036;-78
2021/12/18 12:25:50;;;;;;;1.35;0.40;;;8.80;99.90;;;;;;4888817;29;20415;-78
2021/12/18 12:28:25;;;;;;;0.80;0.40;;;8.80;99.90;;;;;;4867181;29;20037;-78
2021/12/18 12:31:00;;;;;;;0.75;0.40;;;8.90;99.90;;;;;;4886907;29;20044;-79
2021/12/18 12:33:35;;;;;;;0.75;0.40;;;8.90;99.90;;;;;;4908963;29;20486;-79
2021/12/18 12:36:08;;;;;;;0.98;0.40;;;9.10;99.90;;;;;;4912344;29;20051;-79
2021/12/18 12:38:41;;;;;;;0.57;0.32;;;9.10;99.90;;;;;;4912195;29;21136;-79
2021/12/18 12:41:26;;;;;;;;;;;9.20;99.90;;;;;;4912173;29;20055;-79
2021/12/18 12:43:58;;;;;;;0.60;0.30;;;9.20;99.90;;;;;;4915662;29;19930;-77
2021/12/18 12:46:25;;;;;;;0.70;0.30;;;9.10;99.90;;;;;;4892542;29;20049;-79
2021/12/18 12:48:58;;;;;;;0.63;0.28;;;9.10;99.90;;;;;;4912605;29;20040;-77
2021/12/18 12:51:25;;;;;;;0.60;0.38;;;9.10;99.90;;;;;;4887674;29;20035;-79
2021/12/18 12:53:53;;;;;;;0.70;0.40;;;9.00;99.90;;;;;;4890144;29;20041;-78
2021/12/18 12:56:22;;;;;;;0.68;0.30;;;9.00;99.90;;;;;;4910225;29;20436;-77
2021/12/18 12:59:24;;;;;;;1.42;0.30;;;9.10;99.90;;;;;;4913598;29;20383;-78
2021/12/18 13:01:51;;;;;;;0.98;0.32;;;9.20;99.90;;;;;;4898362;29;20036;-79
2021/12/18 13:04:18;;;;;;;0.70;0.30;;;9.20;99.90;;;;;;4892049;29;20048;-79
2021/12/18 13:06:45;;;;;;;0.57;0.30;;;9.20;99.90;;;;;;4882863;29;20052;-79
2021/12/18 13:09:12;;;;;;;3.50;1.10;;;9.20;99.90;;;;;;4893180;29;20040;-79
2021/12/18 13:11:39;;;;;;;18.88;12.82;;;9.10;99.90;;;;;;4888962;29;20032;-79
2021/12/18 13:14:12;;;;;;;2.97;1.50;;;9.20;99.90;;;;;;4894314;29;20033;-80
2021/12/18 13:16:39;;;;;;;3.08;1.73;;;9.10;99.90;;;;;;4895520;29;20044;-80
2021/12/18 13:19:05;;;;;;;1.75;0.70;;;9.10;99.90;;;;;;4874974;29;20048;-75
2021/12/18 13:21:35;;;;;;;1.02;0.50;;;9.10;99.90;;;;;;4916041;29;20042;-78
2021/12/18 13:24:04;;;;;;;2.25;0.70;;;9.20;99.90;;;;;;4895332;29;20047;-79
2021/12/18 13:26:42;;;;;;;0.93;0.40;;;9.20;99.90;;;;;;4917513;29;20035;-79
2021/12/18 13:29:10;;;;;;;1.02;0.45;;;9.20;99.90;;;;;;4896552;29;20492;-78
2021/12/18 13:31:46;;;;;;;1.00;0.45;;;9.20;99.90;;;;;;4895438;29;20036;-79
2021/12/18 13:34:16;;;;;;;1.10;0.40;;;9.20;99.90;;;;;;4895722;29;20039;-79
2021/12/18 13:36:50;;;;;;;1.15;0.40;;;9.10;99.90;;;;;;4916992;29;20044;-79
2021/12/18 13:39:21;;;;;;;1.63;0.68;;;9.20;99.90;;;;;;4908840;29;20045;-79
2021/12/18 13:42:21;;;;;;;1.70;0.40;;;9.10;99.90;;;;;;4917606;29;20039;-78
2021/12/18 13:45:01;;;;;;;1.05;0.50;;;9.00;99.90;;;;;;4881150;29;20056;-79
2021/12/18 13:47:47;;;;;;;1.25;0.60;;;9.00;99.90;;;;;;4892066;29;20399;-79
2021/12/18 13:50:20;;;;;;;2.00;0.70;;;9.00;99.90;;;;;;4917353;29;20212;-79